sensor_id;sensor_type;location;lat;lon;timestamp;pressure;altitude;pressure_sealevel;temperature;humidity
498;BME280;39559;48.630;9.162;2022-11-15T00:02:13;97294.88;;;2.81;100.00
498;BME280;39559;48.630;9.162;2022-11-15T00:04:39;97295.50;;;2.97;100.00
498;BME280;39559;48.630;9.162;2022-11-15T00:07:07;97292.31;;;2.83;100.00
498;BME280;39559;48.630;9.162;2022-11-15T00:09:33;97285.59;;;2.74;100.00
498;BME280;39559;48.630;9.162;2022-11-15T00:14:06;97283.25;;;2.60;100.00
498;BME280;39559;48.630;9.162;2022-11-15T00:16:32;97288.28;;;2.66;100.00
498;BME280;39559;48.630;9.162;2022-11-15T00:18:57;97283.88;;;2.75;100.00
498;BME280;39559;48.630;9.162;2022-11-15T00:21:24;97275.16;;;2.86;100.00
498;BME280;39559;48.630;9.162;2022-11-15T00:23:49;97277.06;;;2.74;100.00
498;BME280;39559;48.630;9.162;2022-11-15T00:26:15;97273.56;;;2.78;100.00
498;BME280;39559;48.630;9.162;2022-11-15T00:28:41;97272.06;;;2.64;100.00
498;BME280;39559;48.630;9.162;2022-11-15T00:31:12;97260.84;;;2.72;100.00
498;BME280;39559;48.630;9.162;2022-11-15T00:33:38;97253.31;;;2.61;100.00
498;BME280;39559;48.630;9.162;2022-11-15T00:38:06;97256.13;;;2.44;100.00
498;BME280;39559;48.630;9.162;2022-11-15T00:40:32;97256.31;;;2.28;100.00
498;BME280;39559;48.630;9.162;2022-11-15T00:42:58;97255.13;;;2.53;100.00
498;BME280;39559;48.630;9.162;2022-11-15T00:45:24;97251.09;;;2.35;100.00
498;BME280;39559;48.630;9.162;2022-11-15T00:47:49;97256.19;;;2.38;100.00
498;BME280;39559;48.630;9.162;2022-11-15T00:50:15;97249.41;;;2.37;100.00
498;BME280;39559;48.630;9.162;2022-11-15T00:52:41;97251.72;;;2.52;100.00
498;BME280;39559;48.630;9.162;2022-11-15T00:55:17;97242.66;;;2.29;100.00
498;BME280;39559;48.630;9.162;2022-11-15T00:57:43;97244.03;;;2.52;100.00
498;BME280;39559;48.630;9.162;2022-11-15T01:02:06;97243.63;;;2.19;100.00
498;BME280;39559;48.630;9.162;2022-11-15T01:04:32;97241.34;;;1.98;100.00
498;BME280;39559;48.630;9.162;2022-11-15T01:06:58;97244.81;;;1.95;100.00
498;BME280;39559;48.630;9.162;2022-11-15T01:09:23;97238.00;;;1.92;100.00
498;BME280;39559;48.630;9.162;2022-11-15T01:11:49;97242.25;;;1.95;100.00
498;BME280;39559;48.630;9.162;2022-11-15T01:14:14;97243.06;;;1.99;100.00
498;BME280;39559;48.630;9.162;2022-11-15T01:16:40;97237.13;;;1.97;100.00
498;BME280;39559;48.630;9.162;2022-11-15T01:19:05;97239.00;;;1.82;100.00
498;BME280;39559;48.630;9.162;2022-11-15T01:21:31;97234.00;;;1.71;100.00
498;BME280;39559;48.630;9.162;2022-11-15T01:26:10;97226.25;;;1.76;100.00
498;BME280;39559;48.630;9.162;2022-11-15T01:28:38;97227.13;;;1.73;100.00
498;BME280;39559;48.630;9.162;2022-11-15T01:31:06;97234.66;;;1.87;100.00
498;BME280;39559;48.630;9.162;2022-11-15T01:33:34;97238.91;;;1.87;100.00
498;BME280;39559;48.630;9.162;2022-11-15T01:36:26;97232.22;;;1.77;100.00
498;BME280;39559;48.630;9.162;2022-11-15T01:38:55;97228.81;;;1.75;100.00
498;BME280;39559;48.630;9.162;2022-11-15T01:41:27;97230.31;;;1.94;100.00
498;BME280;39559;48.630;9.162;2022-11-15T01:43:56;97224.47;;;1.81;100.00
498;BME280;39559;48.630;9.162;2022-11-15T01:46:29;97215.13;;;1.80;100.00
498;BME280;39559;48.630;9.162;2022-11-15T01:50:10;97210.13;;;1.69;100.00
498;BME280;39559;48.630;9.162;2022-11-15T01:52:38;97210.94;;;1.73;100.00
498;BME280;39559;48.630;9.162;2022-11-15T01:55:23;97213.38;;;1.82;100.00
498;BME280;39559;48.630;9.162;2022-11-15T01:57:53;97212.47;;;1.86;100.00
498;BME280;39559;48.630;9.162;2022-11-15T02:00:20;97203.97;;;1.84;100.00
498;BME280;39559;48.630;9.162;2022-11-15T02:02:46;97209.13;;;1.81;100.00
498;BME280;39559;48.630;9.162;2022-11-15T02:05:11;97214.25;;;1.81;100.00
498;BME280;39559;48.630;9.162;2022-11-15T02:07:37;97205.75;;;1.78;100.00
498;BME280;39559;48.630;9.162;2022-11-15T02:10:10;97203.28;;;1.71;100.00
498;BME280;39559;48.630;9.162;2022-11-15T02:14:09;97192.94;;;1.78;100.00
498;BME280;39559;48.630;9.162;2022-11-15T02:16:47;97195.53;;;1.76;100.00
498;BME280;39559;48.630;9.162;2022-11-15T02:24:55;97186.56;;;2.09;100.00
498;BME280;39559;48.630;9.162;2022-11-15T02:33:35;97187.25;;;1.56;100.00
498;BME280;39559;48.630;9.162;2022-11-15T02:38:24;97167.47;;;1.67;100.00
498;BME280;39559;48.630;9.162;2022-11-15T02:41:04;97169.94;;;1.76;100.00
498;BME280;39559;48.630;9.162;2022-11-15T02:46:37;97164.00;;;1.72;100.00
498;BME280;39559;48.630;9.162;2022-11-15T02:49:28;97163.16;;;1.72;100.00
498;BME280;39559;48.630;9.162;2022-11-15T02:51:55;97160.56;;;1.75;100.00
498;BME280;39559;48.630;9.162;2022-11-15T02:54:26;97161.41;;;1.74;100.00
498;BME280;39559;48.630;9.162;2022-11-15T02:56:56;97162.38;;;1.67;100.00
498;BME280;39559;48.630;9.162;2022-11-15T03:02:42;97156.44;;;1.62;100.00
498;BME280;39559;48.630;9.162;2022-11-15T03:05:37;97158.25;;;1.55;100.00
498;BME280;39559;48.630;9.162;2022-11-15T03:08:18;97153.97;;;1.56;100.00
498;BME280;39559;48.630;9.162;2022-11-15T03:13:28;97142.00;;;1.58;100.00
498;BME280;39559;48.630;9.162;2022-11-15T03:16:18;97142.94;;;1.50;100.00
498;BME280;39559;48.630;9.162;2022-11-15T03:19:02;97143.66;;;1.62;100.00
498;BME280;39559;48.630;9.162;2022-11-15T03:21:30;97135.97;;;1.62;100.00
498;BME280;39559;48.630;9.162;2022-11-15T03:26:12;97129.31;;;1.51;100.00
498;BME280;39559;48.630;9.162;2022-11-15T03:31:13;97124.19;;;1.51;100.00
498;BME280;39559;48.630;9.162;2022-11-15T03:34:00;97123.88;;;1.75;100.00
498;BME280;39559;48.630;9.162;2022-11-15T03:36:29;97130.16;;;1.50;100.00
498;BME280;39559;48.630;9.162;2022-11-15T03:39:00;97128.41;;;1.52;100.00
498;BME280;39559;48.630;9.162;2022-11-15T03:44:48;97122.59;;;1.41;100.00
498;BME280;39559;48.630;9.162;2022-11-15T03:47:33;97120.81;;;1.48;100.00
498;BME280;39559;48.630;9.162;2022-11-15T03:50:17;97116.44;;;1.56;100.00
498;BME280;39559;48.630;9.162;2022-11-15T03:52:45;97114.63;;;1.66;100.00
498;BME280;39559;48.630;9.162;2022-11-15T03:55:15;97107.81;;;1.62;100.00
498;BME280;39559;48.630;9.162;2022-11-15T03:57:40;97118.97;;;1.58;100.00
498;BME280;39559;48.630;9.162;2022-11-15T04:00:07;97108.59;;;1.70;100.00
498;BME280;39559;48.630;9.162;2022-11-15T04:02:33;97108.59;;;1.70;100.00
498;BME280;39559;48.630;9.162;2022-11-15T04:04:58;97115.00;;;1.35;100.00
498;BME280;39559;48.630;9.162;2022-11-15T04:10:34;97109.88;;;1.37;100.00
498;BME280;39559;48.630;9.162;2022-11-15T04:14:12;97102.25;;;1.30;100.00
498;BME280;39559;48.630;9.162;2022-11-15T04:16:37;97116.75;;;1.33;100.00
498;BME280;39559;48.630;9.162;2022-11-15T04:19:03;97104.78;;;1.33;100.00
498;BME280;39559;48.630;9.162;2022-11-15T04:21:47;97106.47;;;1.34;100.00
498;BME280;39559;48.630;9.162;2022-11-15T04:24:30;97107.44;;;1.26;100.00
498;BME280;39559;48.630;9.162;2022-11-15T04:26:56;97111.63;;;1.33;100.00
498;BME280;39559;48.630;9.162;2022-11-15T04:29:21;97109.72;;;1.47;100.00
498;BME280;39559;48.630;9.162;2022-11-15T04:31:59;97110.00;;;1.26;100.00
498;BME280;39559;48.630;9.162;2022-11-15T04:34:25;97103.94;;;1.33;100.00
498;BME280;39559;48.630;9.162;2022-11-15T04:38:13;97096.91;;;1.49;100.00
498;BME280;39559;48.630;9.162;2022-11-15T04:40:38;97101.81;;;1.66;100.00
498;BME280;39559;48.630;9.162;2022-11-15T04:43:04;97103.59;;;1.59;100.00
498;BME280;39559;48.630;9.162;2022-11-15T04:45:30;97100.13;;;1.65;100.00
498;BME280;39559;48.630;9.162;2022-11-15T04:47:55;97095.16;;;1.51;100.00
498;BME280;39559;48.630;9.162;2022-11-15T04:50:21;97091.75;;;1.53;100.00
498;BME280;39559;48.630;9.162;2022-11-15T04:52:53;97094.47;;;1.40;100.00
498;BME280;39559;48.630;9.162;2022-11-15T04:55:19;97090.25;;;1.37;100.00
498;BME280;39559;48.630;9.162;2022-11-15T04:57:45;97086.69;;;1.47;100.00
498;BME280;39559;48.630;9.162;2022-11-15T05:02:13;97084.94;;;1.51;100.00
498;BME280;39559;48.630;9.162;2022-11-15T05:04:39;97075.75;;;1.36;100.00
498;BME280;39559;48.630;9.162;2022-11-15T05:07:04;97078.31;;;1.36;100.00
498;BME280;39559;48.630;9.162;2022-11-15T05:09:30;97073.19;;;1.38;100.00
498;BME280;39559;48.630;9.162;2022-11-15T05:11:55;97073.13;;;1.42;100.00
498;BME280;39559;48.630;9.162;2022-11-15T05:14:21;97077.56;;;1.28;100.00
498;BME280;39559;48.630;9.162;2022-11-15T05:16:47;97074.22;;;1.23;100.00
498;BME280;39559;48.630;9.162;2022-11-15T05:19:12;97074.19;;;1.24;100.00
498;BME280;39559;48.630;9.162;2022-11-15T05:21:38;97075.16;;;1.14;100.00
498;BME280;39559;48.630;9.162;2022-11-15T05:26:17;97072.47;;;1.25;100.00
498;BME280;39559;48.630;9.162;2022-11-15T05:28:42;97069.50;;;1.59;100.00
498;BME280;39559;48.630;9.162;2022-11-15T05:31:10;97081.34;;;1.67;100.00
498;BME280;39559;48.630;9.162;2022-11-15T05:33:37;97071.13;;;1.63;100.00
498;BME280;39559;48.630;9.162;2022-11-15T05:38:41;97067.75;;;1.61;100.00
498;BME280;39559;48.630;9.162;2022-11-15T05:41:07;97054.03;;;1.66;100.00
498;BME280;39559;48.630;9.162;2022-11-15T05:43:35;97055.69;;;1.69;100.00
498;BME280;39559;48.630;9.162;2022-11-15T05:46:04;97055.63;;;1.75;100.00
498;BME280;39559;48.630;9.162;2022-11-15T05:50:16;97059.63;;;1.93;100.00
498;BME280;39559;48.630;9.162;2022-11-15T05:52:43;97058.19;;;1.73;100.00
498;BME280;39559;48.630;9.162;2022-11-15T05:55:10;97058.41;;;1.58;100.00
498;BME280;39559;48.630;9.162;2022-11-15T05:57:36;97050.75;;;1.57;100.00
498;BME280;39559;48.630;9.162;2022-11-15T06:00:03;97050.44;;;1.78;100.00
498;BME280;39559;48.630;9.162;2022-11-15T06:02:28;97050.63;;;1.66;100.00
498;BME280;39559;48.630;9.162;2022-11-15T06:04:54;97053.34;;;1.53;100.00
498;BME280;39559;48.630;9.162;2022-11-15T06:07:19;97057.56;;;1.58;100.00
498;BME280;39559;48.630;9.162;2022-11-15T06:09:45;97054.88;;;1.67;100.00
498;BME280;39559;48.630;9.162;2022-11-15T06:14:16;97051.19;;;1.86;100.00
498;BME280;39559;48.630;9.162;2022-11-15T06:16:42;97053.22;;;1.63;100.00
498;BME280;39559;48.630;9.162;2022-11-15T06:19:08;97061.03;;;1.53;100.00
498;BME280;39559;48.630;9.162;2022-11-15T06:21:34;97060.22;;;1.51;100.00
498;BME280;39559;48.630;9.162;2022-11-15T06:23:59;97057.81;;;1.39;100.00
498;BME280;39559;48.630;9.162;2022-11-15T06:26:25;97063.56;;;1.57;100.00
498;BME280;39559;48.630;9.162;2022-11-15T06:28:50;97065.31;;;1.51;100.00
498;BME280;39559;48.630;9.162;2022-11-15T06:31:16;97065.38;;;1.47;100.00
498;BME280;39559;48.630;9.162;2022-11-15T06:33:41;97062.84;;;1.45;100.00
498;BME280;39559;48.630;9.162;2022-11-15T06:38:17;97058.75;;;1.33;100.00
498;BME280;39559;48.630;9.162;2022-11-15T06:40:43;97063.03;;;1.30;100.00
498;BME280;39559;48.630;9.162;2022-11-15T06:43:08;97061.34;;;1.29;100.00
498;BME280;39559;48.630;9.162;2022-11-15T06:45:34;97070.38;;;1.56;100.00
498;BME280;39559;48.630;9.162;2022-11-15T06:47:59;97069.66;;;1.46;100.00
498;BME280;39559;48.630;9.162;2022-11-15T06:50:25;97075.59;;;1.47;100.00
498;BME280;39559;48.630;9.162;2022-11-15T06:52:50;97074.75;;;1.48;100.00
498;BME280;39559;48.630;9.162;2022-11-15T06:55:16;97076.41;;;1.52;100.00
498;BME280;39559;48.630;9.162;2022-11-15T06:57:51;97076.25;;;1.64;100.00
498;BME280;39559;48.630;9.162;2022-11-15T07:02:19;97075.44;;;1.59;100.00
498;BME280;39559;48.630;9.162;2022-11-15T07:04:44;97080.56;;;1.59;100.00
498;BME280;39559;48.630;9.162;2022-11-15T07:07:09;97081.22;;;1.75;100.00
498;BME280;39559;48.630;9.162;2022-11-15T07:09:35;97077.91;;;1.67;100.00
498;BME280;39559;48.630;9.162;2022-11-15T07:12:00;97070.81;;;1.87;100.00
498;BME280;39559;48.630;9.162;2022-11-15T07:14:26;97073.25;;;1.94;100.00
498;BME280;39559;48.630;9.162;2022-11-15T07:16:51;97068.94;;;1.97;100.00
498;BME280;39559;48.630;9.162;2022-11-15T07:19:17;97073.09;;;2.06;100.00
498;BME280;39559;48.630;9.162;2022-11-15T07:21:42;97072.97;;;2.12;100.00
498;BME280;39559;48.630;9.162;2022-11-15T07:26:20;97072.91;;;2.17;100.00
498;BME280;39559;48.630;9.162;2022-11-15T07:28:46;97068.47;;;2.26;100.00
498;BME280;39559;48.630;9.162;2022-11-15T07:31:11;97072.97;;;2.12;100.00
498;BME280;39559;48.630;9.162;2022-11-15T07:33:37;97062.38;;;2.35;100.00
498;BME280;39559;48.630;9.162;2022-11-15T07:36:04;97061.38;;;2.44;100.00
498;BME280;39559;48.630;9.162;2022-11-15T07:38:30;97063.84;;;2.47;100.00
498;BME280;39559;48.630;9.162;2022-11-15T07:40:58;97056.88;;;2.57;100.00
498;BME280;39559;48.630;9.162;2022-11-15T07:43:24;97057.53;;;2.66;100.00
498;BME280;39559;48.630;9.162;2022-11-15T07:45:50;97055.78;;;2.68;100.00
498;BME280;39559;48.630;9.162;2022-11-15T07:50:20;97049.28;;;2.97;100.00
498;BME280;39559;48.630;9.162;2022-11-15T07:52:46;97051.53;;;3.13;100.00
498;BME280;39559;48.630;9.162;2022-11-15T07:55:12;97047.72;;;3.32;100.00
498;BME280;39559;48.630;9.162;2022-11-15T07:57:37;97044.00;;;3.45;100.00
498;BME280;39559;48.630;9.162;2022-11-15T08:00:04;97042.44;;;3.38;100.00
498;BME280;39559;48.630;9.162;2022-11-15T08:02:30;97045.00;;;3.38;100.00
498;BME280;39559;48.630;9.162;2022-11-15T08:04:56;97044.88;;;3.46;100.00
498;BME280;39559;48.630;9.162;2022-11-15T08:07:22;97043.63;;;3.64;100.00
498;BME280;39559;48.630;9.162;2022-11-15T08:09:47;97037.81;;;3.93;100.00
498;BME280;39559;48.630;9.162;2022-11-15T08:14:22;97028.38;;;3.94;100.00
498;BME280;39559;48.630;9.162;2022-11-15T08:16:47;97029.03;;;4.02;100.00
498;BME280;39559;48.630;9.162;2022-11-15T08:19:13;97022.81;;;4.12;100.00
498;BME280;39559;48.630;9.162;2022-11-15T08:21:39;97019.94;;;4.25;100.00
498;BME280;39559;48.630;9.162;2022-11-15T08:24:05;97025.03;;;4.26;100.00
498;BME280;39559;48.630;9.162;2022-11-15T08:26:30;97032.63;;;4.31;100.00
498;BME280;39559;48.630;9.162;2022-11-15T08:28:56;97024.00;;;4.33;100.00
498;BME280;39559;48.630;9.162;2022-11-15T08:31:22;97023.47;;;4.55;100.00
498;BME280;39559;48.630;9.162;2022-11-15T08:33:47;97026.56;;;4.68;100.00
498;BME280;39559;48.630;9.162;2022-11-15T08:38:23;97019.75;;;4.96;100.00
498;BME280;39559;48.630;9.162;2022-11-15T08:40:58;97016.88;;;5.38;100.00
498;BME280;39559;48.630;9.162;2022-11-15T08:43:25;97009.97;;;5.67;100.00
498;BME280;39559;48.630;9.162;2022-11-15T08:45:50;97004.91;;;5.66;100.00
498;BME280;39559;48.630;9.162;2022-11-15T08:48:16;97006.22;;;5.77;100.00
498;BME280;39559;48.630;9.162;2022-11-15T08:50:41;97002.34;;;5.64;100.00
498;BME280;39559;48.630;9.162;2022-11-15T08:53:09;96991.88;;;5.99;100.00
498;BME280;39559;48.630;9.162;2022-11-15T08:55:37;96993.19;;;6.37;100.00
498;BME280;39559;48.630;9.162;2022-11-15T08:58:03;96990.00;;;6.54;100.00
498;BME280;39559;48.630;9.162;2022-11-15T09:02:24;96984.16;;;6.74;100.00
498;BME280;39559;48.630;9.162;2022-11-15T09:04:49;96980.09;;;6.92;100.00
498;BME280;39559;48.630;9.162;2022-11-15T09:07:15;96977.59;;;7.36;100.00
498;BME280;39559;48.630;9.162;2022-11-15T09:09:41;96982.72;;;7.82;100.00
498;BME280;39559;48.630;9.162;2022-11-15T09:12:07;96975.38;;;8.56;100.00
498;BME280;39559;48.630;9.162;2022-11-15T09:14:33;96966.00;;;8.54;100.00
498;BME280;39559;48.630;9.162;2022-11-15T09:16:59;96968.06;;;9.06;100.00
498;BME280;39559;48.630;9.162;2022-11-15T09:19:24;96969.94;;;10.13;100.00
498;BME280;39559;48.630;9.162;2022-11-15T09:21:50;96971.66;;;10.49;100.00
498;BME280;39559;48.630;9.162;2022-11-15T09:26:26;96969.69;;;10.71;100.00
498;BME280;39559;48.630;9.162;2022-11-15T09:28:51;96963.25;;;11.28;100.00
498;BME280;39559;48.630;9.162;2022-11-15T09:31:17;96961.63;;;11.73;100.00
498;BME280;39559;48.630;9.162;2022-11-15T09:33:45;96957.59;;;12.29;100.00
498;BME280;39559;48.630;9.162;2022-11-15T09:36:12;96957.75;;;12.12;100.00
498;BME280;39559;48.630;9.162;2022-11-15T09:38:37;96959.28;;;12.00;100.00
498;BME280;39559;48.630;9.162;2022-11-15T09:50:43;96950.31;;;11.10;100.00
498;BME280;39559;48.630;9.162;2022-11-15T09:53:22;96953.63;;;10.81;100.00
498;BME280;39559;48.630;9.162;2022-11-15T09:55:59;96952.72;;;10.64;100.00
498;BME280;39559;48.630;9.162;2022-11-15T09:58:36;96952.41;;;10.70;100.00
498;BME280;39559;48.630;9.162;2022-11-15T10:01:08;96944.81;;;10.50;100.00
498;BME280;39559;48.630;9.162;2022-11-15T10:03:38;96951.44;;;10.89;100.00
498;BME280;39559;48.630;9.162;2022-11-15T10:06:24;96934.53;;;10.98;100.00
498;BME280;39559;48.630;9.162;2022-11-15T10:09:09;96932.63;;;10.68;100.00
498;BME280;39559;48.630;9.162;2022-11-15T10:11:39;96929.25;;;10.99;100.00
498;BME280;39559;48.630;9.162;2022-11-15T10:14:28;96922.38;;;10.98;100.00
498;BME280;39559;48.630;9.162;2022-11-15T10:22:40;96921.09;;;10.89;100.00
498;BME280;39559;48.630;9.162;2022-11-15T10:27:35;96913.22;;;10.91;100.00
498;BME280;39559;48.630;9.162;2022-11-15T10:30:04;96906.63;;;11.49;100.00
498;BME280;39559;48.630;9.162;2022-11-15T10:32:34;96903.72;;;11.23;100.00
498;BME280;39559;48.630;9.162;2022-11-15T10:35:16;96903.19;;;11.48;100.00
498;BME280;39559;48.630;9.162;2022-11-15T10:38:26;96904.22;;;11.14;100.00
498;BME280;39559;48.630;9.162;2022-11-15T10:41:06;96904.72;;;11.05;100.00
498;BME280;39559;48.630;9.162;2022-11-15T10:43:32;96895.97;;;11.06;100.00
498;BME280;39559;48.630;9.162;2022-11-15T10:46:21;96906.19;;;10.93;100.00
498;BME280;39559;48.630;9.162;2022-11-15T10:48:47;96896.56;;;11.11;100.00
498;BME280;39559;48.630;9.162;2022-11-15T10:51:22;96894.25;;;11.06;100.00
498;BME280;39559;48.630;9.162;2022-11-15T10:53:51;96889.13;;;11.05;100.00
498;BME280;39559;48.630;9.162;2022-11-15T10:56:20;96890.38;;;10.98;100.00
498;BME280;39559;48.630;9.162;2022-11-15T10:58:51;96886.69;;;11.02;100.00
498;BME280;39559;48.630;9.162;2022-11-15T11:02:36;96886.00;;;10.98;100.00
498;BME280;39559;48.630;9.162;2022-11-15T11:05:25;96883.47;;;10.97;100.00
498;BME280;39559;48.630;9.162;2022-11-15T11:10:36;96873.44;;;11.06;100.00
498;BME280;39559;48.630;9.162;2022-11-15T11:13:30;96870.16;;;11.19;100.00
498;BME280;39559;48.630;9.162;2022-11-15T11:18:34;96870.66;;;11.25;100.00
498;BME280;39559;48.630;9.162;2022-11-15T11:21:10;96868.66;;;11.30;100.00
498;BME280;39559;48.630;9.162;2022-11-15T11:26:48;96854.91;;;11.28;100.00
498;BME280;39559;48.630;9.162;2022-11-15T11:35:15;96854.56;;;11.34;100.00
498;BME280;39559;48.630;9.162;2022-11-15T11:40:32;96835.94;;;11.42;100.00
498;BME280;39559;48.630;9.162;2022-11-15T11:50:27;96824.81;;;11.70;100.00
498;BME280;39559;48.630;9.162;2022-11-15T11:55:51;96821.13;;;12.34;100.00
498;BME280;39559;48.630;9.162;2022-11-15T11:58:35;96815.25;;;12.16;100.00
498;BME280;39559;48.630;9.162;2022-11-15T12:09:41;96808.44;;;11.99;100.00
498;BME280;39559;48.630;9.162;2022-11-15T12:14:36;96801.13;;;11.75;100.00
498;BME280;39559;48.630;9.162;2022-11-15T12:17:04;96791.25;;;11.66;100.00
498;BME280;39559;48.630;9.162;2022-11-15T12:19:30;96790.34;;;11.67;100.00
498;BME280;39559;48.630;9.162;2022-11-15T12:22:18;96790.78;;;11.59;100.00
498;BME280;39559;48.630;9.162;2022-11-15T12:27:40;96789.59;;;11.65;100.00
498;BME280;39559;48.630;9.162;2022-11-15T12:30:18;96790.28;;;11.52;100.00
498;BME280;39559;48.630;9.162;2022-11-15T12:33:00;96793.28;;;11.61;100.00
498;BME280;39559;48.630;9.162;2022-11-15T12:35:39;96786.19;;;11.48;100.00
498;BME280;39559;48.630;9.162;2022-11-15T13:02:25;96769.31;;;11.56;100.00
498;BME280;39559;48.630;9.162;2022-11-15T13:04:53;96760.78;;;11.53;100.00
498;BME280;39559;48.630;9.162;2022-11-15T13:10:32;96756.41;;;11.54;100.00
498;BME280;39559;48.630;9.162;2022-11-15T13:13:06;96754.78;;;11.37;100.00
498;BME280;39559;48.630;9.162;2022-11-15T13:15:38;96746.06;;;11.22;100.00
498;BME280;39559;48.630;9.162;2022-11-15T13:18:30;96744.16;;;11.26;100.00
498;BME280;39559;48.630;9.162;2022-11-15T13:20:56;96742.44;;;11.41;100.00
498;BME280;39559;48.630;9.162;2022-11-15T13:23:22;96737.03;;;11.44;100.00
498;BME280;39559;48.630;9.162;2022-11-15T13:26:24;96733.50;;;11.30;100.00
498;BME280;39559;48.630;9.162;2022-11-15T13:28:51;96730.31;;;11.25;100.00
498;BME280;39559;48.630;9.162;2022-11-15T13:31:22;96730.41;;;11.24;100.00
498;BME280;39559;48.630;9.162;2022-11-15T13:33:49;96726.31;;;11.20;100.00
498;BME280;39559;48.630;9.162;2022-11-15T13:36:24;96722.28;;;11.30;100.00
498;BME280;39559;48.630;9.162;2022-11-15T13:39:06;96715.63;;;11.55;100.00
498;BME280;39559;48.630;9.162;2022-11-15T13:41:34;96717.38;;;11.40;100.00
498;BME280;39559;48.630;9.162;2022-11-15T13:44:01;96707.66;;;11.72;100.00
498;BME280;39559;48.630;9.162;2022-11-15T13:46:27;96703.00;;;11.48;100.00
498;BME280;39559;48.630;9.162;2022-11-15T13:50:28;96698.56;;;11.65;100.00
498;BME280;39559;48.630;9.162;2022-11-15T13:52:58;96694.00;;;11.68;100.00
498;BME280;39559;48.630;9.162;2022-11-15T13:55:26;96691.56;;;11.51;100.00
498;BME280;39559;48.630;9.162;2022-11-15T13:57:56;96690.03;;;11.77;100.00
498;BME280;39559;48.630;9.162;2022-11-15T14:00:44;96681.25;;;11.49;100.00
498;BME280;39559;48.630;9.162;2022-11-15T14:03:23;96680.84;;;11.71;100.00
498;BME280;39559;48.630;9.162;2022-11-15T14:06:09;96669.06;;;11.21;100.00
498;BME280;39559;48.630;9.162;2022-11-15T14:08:38;96662.13;;;11.50;100.00
498;BME280;39559;48.630;9.162;2022-11-15T14:11:12;96675.56;;;10.98;100.00
498;BME280;39559;48.630;9.162;2022-11-15T14:14:23;96665.03;;;10.85;100.00
498;BME280;39559;48.630;9.162;2022-11-15T14:16:57;96667.28;;;11.22;100.00
498;BME280;39559;48.630;9.162;2022-11-15T14:22:24;96652.31;;;11.11;100.00
498;BME280;39559;48.630;9.162;2022-11-15T14:25:33;96650.25;;;11.02;100.00
498;BME280;39559;48.630;9.162;2022-11-15T14:28:14;96638.38;;;10.98;100.00
498;BME280;39559;48.630;9.162;2022-11-15T14:30:42;96642.75;;;10.97;100.00
498;BME280;39559;48.630;9.162;2022-11-15T14:33:32;96637.25;;;11.02;100.00
498;BME280;39559;48.630;9.162;2022-11-15T14:38:21;96630.66;;;10.96;100.00
498;BME280;39559;48.630;9.162;2022-11-15T14:40:46;96625.16;;;10.86;100.00
498;BME280;39559;48.630;9.162;2022-11-15T14:43:12;96633.38;;;10.79;100.00
498;BME280;39559;48.630;9.162;2022-11-15T14:45:39;96629.19;;;10.92;100.00
498;BME280;39559;48.630;9.162;2022-11-15T14:48:05;96625.38;;;10.67;100.00
498;BME280;39559;48.630;9.162;2022-11-15T14:50:32;96622.78;;;10.67;100.00
498;BME280;39559;48.630;9.162;2022-11-15T14:52:58;96626.38;;;10.81;100.00
498;BME280;39559;48.630;9.162;2022-11-15T14:55:27;96622.38;;;10.59;100.00
498;BME280;39559;48.630;9.162;2022-11-15T14:57:54;96623.13;;;10.61;100.00
498;BME280;39559;48.630;9.162;2022-11-15T15:02:22;96629.00;;;10.49;100.00
498;BME280;39559;48.630;9.162;2022-11-15T15:04:48;96618.78;;;10.46;100.00
498;BME280;39559;48.630;9.162;2022-11-15T15:07:15;96613.94;;;10.40;100.00
498;BME280;39559;48.630;9.162;2022-11-15T15:09:40;96610.72;;;10.66;100.00
498;BME280;39559;48.630;9.162;2022-11-15T15:12:15;96603.78;;;10.51;100.00
498;BME280;39559;48.630;9.162;2022-11-15T15:14:40;96609.94;;;10.50;100.00
498;BME280;39559;48.630;9.162;2022-11-15T15:17:06;96606.31;;;10.52;100.00
498;BME280;39559;48.630;9.162;2022-11-15T15:19:31;96594.88;;;10.09;100.00
498;BME280;39559;48.630;9.162;2022-11-15T15:21:57;96583.56;;;10.10;100.00
498;BME280;39559;48.630;9.162;2022-11-15T15:26:18;96578.56;;;10.07;100.00
498;BME280;39559;48.630;9.162;2022-11-15T15:28:43;96576.38;;;9.83;100.00
498;BME280;39559;48.630;9.162;2022-11-15T15:31:09;96584.75;;;9.88;100.00
498;BME280;39559;48.630;9.162;2022-11-15T15:33:35;96574.53;;;9.85;100.00
498;BME280;39559;48.630;9.162;2022-11-15T15:36:01;96577.28;;;9.82;100.00
498;BME280;39559;48.630;9.162;2022-11-15T15:38:27;96583.06;;;9.87;100.00
498;BME280;39559;48.630;9.162;2022-11-15T15:40:53;96577.53;;;9.77;100.00
498;BME280;39559;48.630;9.162;2022-11-15T15:43:18;96576.03;;;9.73;100.00
498;BME280;39559;48.630;9.162;2022-11-15T15:45:44;96574.59;;;9.68;100.00
498;BME280;39559;48.630;9.162;2022-11-15T15:50:25;96565.66;;;9.57;100.00
498;BME280;39559;48.630;9.162;2022-11-15T15:52:52;96563.97;;;9.56;100.00
498;BME280;39559;48.630;9.162;2022-11-15T15:55:18;96567.94;;;9.79;100.00
498;BME280;39559;48.630;9.162;2022-11-15T15:57:44;96555.78;;;9.48;100.00
498;BME280;39559;48.630;9.162;2022-11-15T16:00:10;96547.63;;;9.38;100.00
498;BME280;39559;48.630;9.162;2022-11-15T16:02:36;96544.56;;;9.32;100.00
498;BME280;39559;48.630;9.162;2022-11-15T16:05:01;96545.31;;;9.34;100.00
498;BME280;39559;48.630;9.162;2022-11-15T16:07:27;96538.88;;;9.41;100.00
498;BME280;39559;48.630;9.162;2022-11-15T16:09:54;96542.97;;;9.45;100.00
498;BME280;39559;48.630;9.162;2022-11-15T16:14:15;96530.50;;;9.36;100.00
498;BME280;39559;48.630;9.162;2022-11-15T16:16:41;96523.94;;;9.13;100.00
498;BME280;39559;48.630;9.162;2022-11-15T16:19:08;96514.00;;;9.05;100.00
498;BME280;39559;48.630;9.162;2022-11-15T16:21:35;96513.91;;;9.07;100.00
498;BME280;39559;48.630;9.162;2022-11-15T16:24:01;96518.75;;;8.97;100.00
498;BME280;39559;48.630;9.162;2022-11-15T16:26:28;96511.06;;;9.11;100.00
498;BME280;39559;48.630;9.162;2022-11-15T16:28:55;96512.56;;;8.99;100.00